createdAt,value
2022-11-12T00:00:57.531Z, 26.57
2022-11-12T00:01:57.534Z, 26.59
2022-11-12T00:02:57.584Z, 26.61
2022-11-12T00:03:57.633Z, 26.62
2022-11-12T00:04:57.653Z, 26.59
2022-11-12T00:05:57.622Z, 26.57
2022-11-12T00:06:57.802Z, 26.54
2022-11-12T00:07:57.731Z, 26.56
2022-11-12T00:08:57.780Z, 26.56
2022-11-12T00:09:57.810Z, 26.57
2022-11-12T00:10:57.777Z, 26.56
2022-11-12T00:11:57.856Z, 26.52
2022-11-12T00:12:57.825Z, 26.53
2022-11-12T00:13:57.934Z, 26.55
2022-11-12T00:14:57.899Z, 26.52
2022-11-12T00:15:57.959Z, 26.52
2022-11-12T00:16:57.968Z, 26.49
2022-11-12T00:17:58.195Z, 26.52
2022-11-12T00:18:58.018Z, 26.50
2022-11-12T00:19:58.040Z, 26.53
2022-11-12T00:20:58.107Z, 26.51
2022-11-12T00:21:58.103Z, 26.52
2022-11-12T00:22:58.204Z, 26.47
2022-11-12T00:23:58.184Z, 26.50
2022-11-12T00:24:58.191Z, 26.49
2022-11-12T00:25:58.221Z, 26.49
2022-11-12T00:26:58.254Z, 26.47
2022-11-12T00:27:58.360Z, 26.44
2022-11-12T00:28:58.290Z, 26.45
2022-11-12T00:29:58.363Z, 26.46
2022-11-12T00:30:58.386Z, 26.44
2022-11-12T00:31:58.427Z, 26.47
2022-11-12T00:32:58.454Z, 26.43
2022-11-12T00:33:59.561Z, 26.41
2022-11-12T00:35:02.460Z, 26.41
2022-11-12T00:35:58.564Z, 26.41
2022-11-12T00:36:58.676Z, 26.41
2022-11-12T00:37:58.645Z, 26.43
2022-11-12T00:38:58.712Z, 26.43
2022-11-12T00:39:58.699Z, 26.40
2022-11-12T00:40:58.736Z, 26.40
2022-11-12T00:41:58.772Z, 26.42
2022-11-12T00:42:58.865Z, 26.38
2022-11-12T00:43:58.903Z, 26.42
2022-11-12T00:44:58.863Z, 26.36
2022-11-12T00:45:58.883Z, 26.37
2022-11-12T00:46:58.989Z, 26.39
2022-11-12T00:47:59.035Z, 26.38
2022-11-12T00:48:59.081Z, 26.37
2022-11-12T00:49:59.054Z, 26.35
2022-11-12T00:50:59.150Z, 26.36
2022-11-12T00:51:59.145Z, 26.36
2022-11-12T00:53:00.201Z, 26.32
2022-11-12T00:53:59.188Z, 26.34
2022-11-12T00:54:59.223Z, 26.35
2022-11-12T00:55:59.265Z, 26.34
2022-11-12T00:56:59.386Z, 26.30
2022-11-12T00:57:59.415Z, 26.31
2022-11-12T00:58:59.389Z, 26.30
2022-11-12T00:59:59.497Z, 26.30
2022-11-12T01:00:59.633Z, 26.27
2022-11-12T01:01:59.483Z, 26.26
2022-11-12T01:02:59.575Z, 26.27
2022-11-12T01:03:59.681Z, 26.27
2022-11-12T01:04:59.586Z, 26.28
2022-11-12T01:05:59.617Z, 26.28
2022-11-12T01:06:59.719Z, 26.25
2022-11-12T01:07:59.705Z, 26.27
2022-11-12T01:08:59.779Z, 26.28
2022-11-12T01:09:59.758Z, 26.22
2022-11-12T01:10:59.759Z, 26.24
2022-11-12T01:11:59.880Z, 26.21
2022-11-12T01:12:59.854Z, 26.26
2022-11-12T01:13:59.847Z, 26.22
2022-11-12T01:14:59.949Z, 26.20
2022-11-12T01:15:59.927Z, 26.25
2022-11-12T01:16:59.951Z, 26.20
2022-11-12T01:17:59.953Z, 26.20
2022-11-12T01:18:59.984Z, 26.20
2022-11-12T01:20:00.039Z, 26.19
2022-11-12T01:21:00.105Z, 26.19
2022-11-12T01:22:00.107Z, 26.20
2022-11-12T01:23:00.123Z, 26.20
2022-11-12T01:24:00.205Z, 26.24
2022-11-12T01:25:00.184Z, 26.17
2022-11-12T01:26:00.218Z, 26.15
2022-11-12T01:27:00.245Z, 26.17
2022-11-12T01:28:00.323Z, 26.16
2022-11-12T01:29:00.341Z, 26.20
2022-11-12T01:30:00.367Z, 26.18
2022-11-12T01:31:00.388Z, 26.17
2022-11-12T01:32:00.409Z, 26.13
2022-11-12T01:33:00.301Z, 26.17
2022-11-12T01:34:00.313Z, 26.16
2022-11-12T01:35:00.320Z, 26.14
2022-11-12T01:36:00.357Z, 26.16
2022-11-12T01:37:00.363Z, 26.14
2022-11-12T01:38:00.340Z, 26.15
2022-11-12T01:39:00.368Z, 26.13
2022-11-12T01:40:00.352Z, 26.11
2022-11-12T01:41:00.323Z, 26.12
2022-11-12T01:42:00.405Z, 26.12
2022-11-12T01:43:00.341Z, 26.10
2022-11-12T01:44:00.373Z, 26.09
2022-11-12T01:45:00.385Z, 26.12
2022-11-12T01:46:00.370Z, 26.14
2022-11-12T01:47:00.427Z, 26.06
2022-11-12T01:48:00.407Z, 26.11
2022-11-12T01:49:00.418Z, 26.14
2022-11-12T01:50:01.064Z, 26.11
2022-11-12T01:51:00.417Z, 26.07
2022-11-12T01:52:00.413Z, 26.06
2022-11-12T01:53:00.407Z, 26.05
2022-11-12T01:54:00.416Z, 26.08
2022-11-12T01:55:00.449Z, 26.09
2022-11-12T01:56:00.452Z, 26.08
2022-11-12T01:57:00.446Z, 26.07
2022-11-12T01:58:00.468Z, 26.04
2022-11-12T01:59:00.462Z, 26.04
2022-11-12T02:00:00.435Z, 26.03
2022-11-12T02:01:00.501Z, 26.07
2022-11-12T02:02:00.444Z, 26.04
2022-11-12T02:03:00.449Z, 26.05
2022-11-12T02:04:00.481Z, 26.04
2022-11-12T02:05:00.504Z, 26.00
2022-11-12T02:06:00.480Z, 26.05
2022-11-12T02:07:00.558Z, 25.99
2022-11-12T02:08:00.500Z, 26.02
2022-11-12T02:09:00.498Z, 26.02
2022-11-12T02:10:00.512Z, 26.02
2022-11-12T02:11:00.520Z, 26.00
2022-11-12T02:12:00.586Z, 26.02
2022-11-12T02:13:00.540Z, 26.05
2022-11-12T02:14:00.536Z, 25.99
2022-11-12T02:15:00.562Z, 25.99
2022-11-12T02:16:00.549Z, 26.01
2022-11-12T02:17:00.546Z, 25.99
2022-11-12T02:18:00.581Z, 26.00
2022-11-12T02:19:00.555Z, 26.01
2022-11-12T02:20:00.595Z, 25.99
2022-11-12T02:21:00.552Z, 25.97
2022-11-12T02:22:00.600Z, 26.00
2022-11-12T02:23:00.613Z, 25.95
2022-11-12T02:24:00.589Z, 25.97
2022-11-12T02:25:00.613Z, 25.97
2022-11-12T02:26:00.603Z, 25.94
2022-11-12T02:27:00.595Z, 25.97
2022-11-12T02:28:00.640Z, 25.93
2022-11-12T02:29:00.619Z, 25.93
2022-11-12T02:30:00.645Z, 25.91
2022-11-12T02:31:01.682Z, 25.96
2022-11-12T02:32:00.663Z, 25.90
2022-11-12T02:33:00.697Z, 25.96
2022-11-12T02:34:00.703Z, 25.94
2022-11-12T02:35:00.680Z, 25.90
2022-11-12T02:36:00.705Z, 25.91
2022-11-12T02:37:00.669Z, 25.87
2022-11-12T02:38:00.682Z, 25.92
2022-11-12T02:39:00.677Z, 25.90
2022-11-12T02:40:00.744Z, 25.91
2022-11-12T02:41:00.694Z, 25.89
2022-11-12T02:42:00.701Z, 25.91
2022-11-12T02:43:00.740Z, 25.88
2022-11-12T02:44:00.711Z, 25.88
2022-11-12T02:45:00.721Z, 25.86
2022-11-12T02:46:00.743Z, 25.86
2022-11-12T02:47:00.739Z, 25.88
2022-11-12T02:48:00.755Z, 25.86
2022-11-12T02:49:00.781Z, 25.86
2022-11-12T02:50:00.787Z, 25.86
2022-11-12T02:51:00.773Z, 25.83
2022-11-12T02:52:00.831Z, 25.86
2022-11-12T02:53:00.793Z, 25.86
2022-11-12T02:54:00.812Z, 25.85
2022-11-12T02:55:00.802Z, 25.87
2022-11-12T02:56:00.841Z, 25.87
2022-11-12T02:57:00.822Z, 25.84
2022-11-12T02:58:00.835Z, 25.85
2022-11-12T02:59:00.859Z, 25.84
2022-11-12T03:00:00.840Z, 25.84
2022-11-12T03:01:00.885Z, 25.84
2022-11-12T03:02:00.854Z, 25.84
2022-11-12T03:03:00.860Z, 25.82
2022-11-12T03:04:00.860Z, 25.81
2022-11-12T03:05:00.876Z, 25.80
2022-11-12T03:06:00.880Z, 25.81
2022-11-12T03:07:00.976Z, 25.81
2022-11-12T03:08:00.887Z, 25.80
2022-11-12T03:09:00.914Z, 25.80
2022-11-12T03:10:00.902Z, 25.80
2022-11-12T03:11:00.948Z, 25.79
2022-11-12T03:12:00.911Z, 25.81
2022-11-12T03:13:00.935Z, 25.79
2022-11-12T03:14:00.927Z, 25.79
2022-11-12T03:15:00.921Z, 25.81
2022-11-12T03:16:00.925Z, 25.78
2022-11-12T03:17:00.971Z, 25.78
2022-11-12T03:18:00.950Z, 25.79
2022-11-12T03:19:00.947Z, 25.76
2022-11-12T03:20:00.950Z, 25.80
2022-11-12T03:21:00.944Z, 25.78
2022-11-12T03:22:00.961Z, 25.80
2022-11-12T03:23:00.953Z, 25.77
2022-11-12T03:24:00.954Z, 25.75
2022-11-12T03:25:00.973Z, 25.77
2022-11-12T03:26:00.972Z, 25.75
2022-11-12T03:27:00.957Z, 25.77
2022-11-12T03:28:00.976Z, 25.74
2022-11-12T03:29:00.995Z, 25.75
2022-11-12T03:30:00.987Z, 25.74
2022-11-12T03:31:01.018Z, 25.74
2022-11-12T03:32:01.001Z, 25.72
2022-11-12T03:33:01.019Z, 25.70
2022-11-12T03:34:01.003Z, 25.72
2022-11-12T03:35:01.020Z, 25.75
2022-11-12T03:36:01.032Z, 25.69
2022-11-12T03:37:01.023Z, 25.72
2022-11-12T03:38:01.059Z, 25.72
2022-11-12T03:39:01.051Z, 25.72
2022-11-12T03:40:01.056Z, 25.70
2022-11-12T03:41:01.084Z, 25.72
2022-11-12T03:42:01.061Z, 25.71
2022-11-12T03:43:01.070Z, 25.70
2022-11-12T03:44:01.069Z, 25.71
2022-11-12T03:45:01.057Z, 25.68
2022-11-12T03:46:01.089Z, 25.68
2022-11-12T03:47:01.066Z, 25.69
2022-11-12T03:48:01.092Z, 25.71
2022-11-12T03:49:01.110Z, 25.69
2022-11-12T03:50:01.108Z, 25.66
2022-11-12T03:51:01.121Z, 25.67
2022-11-12T03:52:01.128Z, 25.67
2022-11-12T03:53:01.099Z, 25.66
2022-11-12T03:54:01.132Z, 25.67
2022-11-12T03:55:01.122Z, 25.67
2022-11-12T03:56:01.115Z, 25.67
2022-11-12T03:57:01.144Z, 25.63
2022-11-12T03:58:01.128Z, 25.68
2022-11-12T03:59:01.146Z, 25.63
2022-11-12T04:00:01.167Z, 25.65
2022-11-12T04:01:01.145Z, 25.61
2022-11-12T04:02:01.152Z, 25.65
2022-11-12T04:03:01.164Z, 25.62
2022-11-12T04:04:01.156Z, 25.64
2022-11-12T04:05:01.145Z, 25.62
2022-11-12T04:06:01.173Z, 25.62
2022-11-12T04:07:01.163Z, 25.64
2022-11-12T04:08:01.149Z, 25.63
2022-11-12T04:09:01.142Z, 25.62
2022-11-12T04:10:01.154Z, 25.62
2022-11-12T04:11:01.155Z, 25.63
2022-11-12T04:12:01.161Z, 25.59
2022-11-12T04:13:01.154Z, 25.59
2022-11-12T04:14:01.166Z, 25.59
2022-11-12T04:15:01.172Z, 25.59
2022-11-12T04:16:01.189Z, 25.60
2022-11-12T04:17:01.163Z, 25.59
2022-11-12T04:18:01.218Z, 25.58
2022-11-12T04:19:01.200Z, 25.58
2022-11-12T04:20:01.186Z, 25.60
2022-11-12T04:21:01.181Z, 25.58
2022-11-12T04:22:01.206Z, 25.56
2022-11-12T04:23:01.189Z, 25.57
2022-11-12T04:24:01.221Z, 25.60
2022-11-12T04:25:01.181Z, 25.57
2022-11-12T04:26:01.205Z, 25.58
2022-11-12T04:27:01.233Z, 25.55
2022-11-12T04:28:01.224Z, 25.58
2022-11-12T04:29:01.224Z, 25.57
2022-11-12T04:30:01.245Z, 25.52
2022-11-12T04:31:01.235Z, 25.55
2022-11-12T04:32:01.245Z, 25.59
2022-11-12T04:33:01.219Z, 25.68
2022-11-12T04:34:01.229Z, 25.76
2022-11-12T04:35:01.452Z, 25.85
2022-11-12T04:36:01.229Z, 25.91
2022-11-12T04:37:01.228Z, 25.98
2022-11-12T04:38:01.271Z, 26.07
2022-11-12T04:39:01.248Z, 26.09
2022-11-12T04:40:01.250Z, 26.16
2022-11-12T04:41:01.269Z, 26.22
2022-11-12T04:42:01.261Z, 26.25
2022-11-12T04:43:01.261Z, 26.29
2022-11-12T04:44:01.276Z, 26.36
2022-11-12T04:45:01.257Z, 26.41
2022-11-12T04:46:01.256Z, 26.46
2022-11-12T04:47:01.271Z, 26.46
2022-11-12T04:48:01.274Z, 26.50
2022-11-12T04:49:01.269Z, 26.55
2022-11-12T04:50:01.284Z, 26.55
2022-11-12T04:51:01.295Z, 26.58
2022-11-12T04:52:01.303Z, 26.62
2022-11-12T04:53:01.314Z, 26.63
2022-11-12T04:54:01.314Z, 26.67
2022-11-12T04:55:01.350Z, 26.70
2022-11-12T04:56:01.331Z, 26.73
2022-11-12T04:57:01.359Z, 26.75
2022-11-12T04:58:01.379Z, 26.74
2022-11-12T04:59:01.350Z, 26.77
2022-11-12T05:00:01.403Z, 26.75
2022-11-12T05:01:01.377Z, 27.03
2022-11-12T05:02:01.365Z, 27.88
2022-11-12T05:03:01.365Z, 28.07
2022-11-12T05:04:01.360Z, 28.85
2022-11-12T05:05:01.392Z, 29.16
2022-11-12T05:06:01.380Z, 29.94
2022-11-12T05:07:01.442Z, 30.80
2022-11-12T05:08:01.382Z, 32.05
2022-11-12T05:09:01.429Z, 31.38
2022-11-12T05:10:01.440Z, 31.29
2022-11-12T05:11:01.425Z, 31.34
2022-11-12T05:12:01.440Z, 31.97
2022-11-12T05:13:01.442Z, 32.74
2022-11-12T05:14:01.440Z, 33.98
2022-11-12T05:15:01.484Z, 34.36
2022-11-12T05:16:01.465Z, 33.74
2022-11-12T05:17:01.464Z, 33.89
2022-11-12T05:18:01.468Z, 34.25
2022-11-12T05:19:01.487Z, 33.70
2022-11-12T05:20:01.524Z, 33.64
2022-11-12T05:21:01.490Z, 34.00
2022-11-12T05:22:01.489Z, 34.30
2022-11-12T05:23:07.795Z, 34.51
2022-11-12T05:24:01.518Z, 34.68
2022-11-12T05:25:01.501Z, 34.83
2022-11-12T05:26:01.506Z, 34.76
2022-11-12T05:27:01.518Z, 34.85
2022-11-12T05:28:01.526Z, 34.76
2022-11-12T05:29:06.219Z, 34.86
2022-11-12T05:30:01.535Z, 34.78
2022-11-12T05:31:01.520Z, 34.79
2022-11-12T05:32:01.559Z, 34.64
2022-11-12T05:33:01.547Z, 34.73
2022-11-12T05:34:01.544Z, 34.68
2022-11-12T05:35:01.580Z, 34.65
2022-11-12T05:36:01.566Z, 34.63
2022-11-12T05:37:01.564Z, 34.56
2022-11-12T05:38:01.576Z, 34.51
2022-11-12T05:39:01.570Z, 34.42
2022-11-12T05:40:01.577Z, 34.35
2022-11-12T05:41:01.616Z, 34.33
2022-11-12T05:42:14.124Z, 34.23
2022-11-12T05:43:01.612Z, 34.22
2022-11-12T05:44:01.601Z, 34.10
2022-11-12T05:45:01.623Z, 34.04
2022-11-12T05:46:01.608Z, 34.02
2022-11-12T05:47:01.629Z, 34.01
2022-11-12T05:48:01.624Z, 33.95
2022-11-12T05:49:01.638Z, 33.71
2022-11-12T05:50:01.645Z, 33.70
2022-11-12T05:51:12.858Z, 33.66
2022-11-12T05:52:01.622Z, 33.53
2022-11-12T05:53:01.625Z, 33.49
2022-11-12T05:54:01.652Z, 33.41
2022-11-12T05:55:01.686Z, 33.42
2022-11-12T05:56:01.663Z, 33.32
2022-11-12T05:57:01.660Z, 33.24
2022-11-12T05:58:01.662Z, 33.19
2022-11-12T05:59:01.684Z, 33.07
2022-11-12T06:00:01.673Z, 33.05
2022-11-12T06:01:01.709Z, 32.97
2022-11-12T06:02:01.832Z, 32.96
2022-11-12T06:03:01.719Z, 32.87
2022-11-12T06:04:01.721Z, 32.77
2022-11-12T06:05:01.705Z, 32.70
2022-11-12T06:06:01.726Z, 32.64
2022-11-12T06:07:01.830Z, 32.54
2022-11-12T06:08:01.713Z, 32.47
2022-11-12T06:09:01.719Z, 32.36
2022-11-12T06:10:01.727Z, 32.36
2022-11-12T06:11:01.714Z, 32.37
2022-11-12T06:12:01.728Z, 32.31
2022-11-12T06:13:01.751Z, 32.20
2022-11-12T06:14:01.735Z, 32.18
2022-11-12T06:15:01.753Z, 32.07
2022-11-12T06:16:01.768Z, 32.02
2022-11-12T06:17:01.770Z, 31.97
2022-11-12T06:18:01.759Z, 31.95
2022-11-12T06:19:01.763Z, 31.87
2022-11-12T06:20:01.768Z, 31.81
2022-11-12T06:21:01.759Z, 31.76
2022-11-12T06:22:01.764Z, 31.76
2022-11-12T06:23:01.777Z, 31.75
2022-11-12T06:24:01.787Z, 31.70
2022-11-12T06:25:01.778Z, 31.65
2022-11-12T06:26:01.833Z, 31.59
2022-11-12T06:27:01.814Z, 31.54
2022-11-12T06:28:01.801Z, 31.51
2022-11-12T06:29:01.820Z, 31.50
2022-11-12T06:30:01.823Z, 31.44
2022-11-12T06:31:01.843Z, 31.38
2022-11-12T06:32:01.808Z, 31.37
2022-11-12T06:33:01.808Z, 31.29
2022-11-12T06:34:01.808Z, 31.27
2022-11-12T06:35:01.813Z, 31.28
2022-11-12T06:36:01.832Z, 31.24
2022-11-12T06:37:01.809Z, 31.13
2022-11-12T06:38:01.855Z, 31.11
2022-11-12T06:39:01.837Z, 31.07
2022-11-12T06:40:01.846Z, 31.06
2022-11-12T06:41:01.850Z, 31.06
2022-11-12T06:42:01.853Z, 31.00
2022-11-12T06:43:01.842Z, 31.00
2022-11-12T06:44:01.844Z, 30.94
2022-11-12T06:45:01.840Z, 30.89
2022-11-12T06:46:01.862Z, 30.85
2022-11-12T06:47:01.870Z, 30.87
2022-11-12T06:48:01.857Z, 30.85
2022-11-12T06:49:01.851Z, 30.83
2022-11-12T06:50:01.851Z, 30.79
2022-11-12T06:51:01.885Z, 30.77
2022-11-12T06:52:01.873Z, 30.72
2022-11-12T06:53:01.859Z, 30.70
2022-11-12T06:54:01.856Z, 30.60
2022-11-12T06:55:01.885Z, 30.67
2022-11-12T06:56:01.864Z, 30.65
2022-11-12T06:57:01.877Z, 30.62
2022-11-12T06:58:01.878Z, 30.54
2022-11-12T06:59:01.865Z, 30.53
2022-11-12T07:00:01.897Z, 30.48
2022-11-12T07:01:02.653Z, 30.50
2022-11-12T07:02:01.961Z, 30.43
2022-11-12T07:03:01.877Z, 30.45
2022-11-12T07:04:01.888Z, 30.38
2022-11-12T07:05:01.874Z, 30.39
2022-11-12T07:06:01.887Z, 30.34
2022-11-12T07:07:02.699Z, 30.36
2022-11-12T07:08:01.873Z, 30.30
2022-11-12T07:09:01.884Z, 30.33
2022-11-12T07:10:01.883Z, 30.30
2022-11-12T07:11:01.882Z, 30.23
2022-11-12T07:12:01.874Z, 30.29
2022-11-12T07:13:01.886Z, 30.28
2022-11-12T07:14:01.886Z, 30.30
2022-11-12T07:15:01.890Z, 30.32
2022-11-12T07:16:01.880Z, 30.29
2022-11-12T07:17:01.877Z, 30.27
2022-11-12T07:18:01.880Z, 30.25
2022-11-12T07:19:01.885Z, 30.26
2022-11-12T07:20:03.883Z, 30.23
2022-11-12T07:21:01.890Z, 30.23
2022-11-12T07:22:01.882Z, 30.17
2022-11-12T07:23:01.890Z, 30.24
2022-11-12T07:24:01.890Z, 30.23
2022-11-12T07:25:01.908Z, 30.17
2022-11-12T07:26:01.950Z, 30.10
2022-11-12T07:27:01.994Z, 30.15
2022-11-12T07:28:02.014Z, 30.12
2022-11-12T07:29:02.113Z, 30.19
2022-11-12T07:30:02.110Z, 30.09
2022-11-12T07:31:02.116Z, 30.10
2022-11-12T07:32:02.193Z, 30.09
2022-11-12T07:33:02.196Z, 30.08
2022-11-12T07:34:02.216Z, 30.12
2022-11-12T07:35:02.272Z, 30.06
2022-11-12T07:36:02.328Z, 30.06
2022-11-12T07:37:02.417Z, 30.02
2022-11-12T07:38:02.430Z, 30.01
2022-11-12T07:39:02.409Z, 29.99
2022-11-12T07:40:02.431Z, 30.02
2022-11-12T07:41:02.462Z, 30.00
2022-11-12T07:42:02.506Z, 30.01
2022-11-12T07:43:02.598Z, 29.98
2022-11-12T07:44:02.536Z, 29.95
2022-11-12T07:45:02.612Z, 29.94
2022-11-12T07:46:07.483Z, 29.86
2022-11-12T07:47:02.505Z, 29.94
2022-11-12T07:48:02.535Z, 29.78
2022-11-12T07:49:02.508Z, 29.76
2022-11-12T07:50:02.529Z, 29.77
2022-11-12T07:51:02.559Z, 29.85
2022-11-12T07:52:02.523Z, 29.79
2022-11-12T07:53:02.551Z, 29.84
2022-11-12T07:54:02.530Z, 29.79
2022-11-12T07:55:02.522Z, 29.73
2022-11-12T07:56:02.547Z, 29.79
2022-11-12T07:57:02.545Z, 29.75
2022-11-12T07:58:02.589Z, 29.78
2022-11-12T07:59:02.572Z, 29.76
2022-11-12T08:00:02.616Z, 29.77
2022-11-12T08:01:02.597Z, 29.76
2022-11-12T08:02:02.599Z, 29.73
2022-11-12T08:03:02.635Z, 29.71
2022-11-12T08:04:02.641Z, 29.69
2022-11-12T08:05:02.615Z, 29.71
2022-11-12T08:06:02.654Z, 29.71
2022-11-12T08:07:02.747Z, 29.74
2022-11-12T08:08:02.854Z, 29.75
2022-11-12T08:09:02.673Z, 29.66
2022-11-12T08:10:02.676Z, 29.71
2022-11-12T08:11:02.649Z, 29.65
2022-11-12T08:12:02.653Z, 29.70
2022-11-12T08:13:02.639Z, 29.67
2022-11-12T08:14:02.679Z, 29.62
2022-11-12T08:15:02.643Z, 29.57
2022-11-12T08:16:02.672Z, 29.60
2022-11-12T08:17:02.669Z, 29.48
2022-11-12T08:18:02.686Z, 29.47
2022-11-12T08:19:02.709Z, 29.45
2022-11-12T08:20:02.703Z, 29.51
2022-11-12T08:21:02.707Z, 29.57
2022-11-12T08:22:02.723Z, 29.56
2022-11-12T08:23:02.723Z, 29.59
2022-11-12T08:24:02.733Z, 29.63
2022-11-12T08:25:02.739Z, 29.46
2022-11-12T08:26:02.743Z, 29.41
2022-11-12T08:27:02.763Z, 29.45
2022-11-12T08:28:02.755Z, 29.37
2022-11-12T08:29:07.884Z, 29.37
2022-11-12T08:30:02.800Z, 29.42
2022-11-12T08:31:02.767Z, 29.44
2022-11-12T08:32:02.770Z, 29.39
2022-11-12T08:33:02.769Z, 29.36
2022-11-12T08:34:02.799Z, 29.34
2022-11-12T08:35:02.772Z, 29.38
2022-11-12T08:36:02.788Z, 29.33
2022-11-12T08:37:02.791Z, 29.21
2022-11-12T08:38:02.804Z, 29.18
2022-11-12T08:39:02.805Z, 29.19
2022-11-12T08:40:02.823Z, 29.26
2022-11-12T08:41:02.874Z, 29.16
2022-11-12T08:42:02.855Z, 29.20
2022-11-12T08:43:02.849Z, 29.20
2022-11-12T08:44:08.133Z, 29.23
2022-11-12T08:45:02.888Z, 29.26
2022-11-12T08:46:02.868Z, 29.21
2022-11-12T08:47:02.894Z, 29.23
2022-11-12T08:48:02.884Z, 29.19
2022-11-12T08:49:02.911Z, 29.16
2022-11-12T08:50:02.883Z, 29.14
2022-11-12T08:51:02.900Z, 29.15
2022-11-12T08:52:02.931Z, 29.17
2022-11-12T08:53:02.894Z, 29.12
2022-11-12T08:54:02.904Z, 29.12
2022-11-12T08:55:02.915Z, 29.11
2022-11-12T08:56:02.933Z, 29.20
2022-11-12T08:57:02.910Z, 29.11
2022-11-12T08:58:02.905Z, 29.12
2022-11-12T08:59:07.095Z, 29.12
2022-11-12T09:00:02.934Z, 29.09
2022-11-12T09:01:02.964Z, 29.07
2022-11-12T09:02:02.956Z, 29.03
2022-11-12T09:03:02.957Z, 29.02
2022-11-12T09:04:02.979Z, 29.03
2022-11-12T09:05:02.976Z, 29.05
2022-11-12T09:06:02.983Z, 29.00
2022-11-12T09:07:03.077Z, 28.98
2022-11-12T09:08:03.069Z, 28.96
2022-11-12T09:09:03.007Z, 28.93
2022-11-12T09:10:03.013Z, 28.95
2022-11-12T09:11:03.140Z, 28.89
2022-11-12T09:12:10.440Z, 28.76
2022-11-12T09:13:03.041Z, 28.72
2022-11-12T09:14:03.078Z, 28.69
2022-11-12T09:15:35.713Z, 28.72
2022-11-12T09:16:03.042Z, 28.67
2022-11-12T09:17:03.036Z, 28.68
2022-11-12T09:18:03.039Z, 28.67
2022-11-12T09:19:03.071Z, 28.61
2022-11-12T09:20:03.065Z, 28.59
2022-11-12T09:21:03.044Z, 28.59
2022-11-12T09:22:03.048Z, 28.58
2022-11-12T09:23:03.061Z, 28.55
2022-11-12T09:24:03.069Z, 28.58
2022-11-12T09:25:03.094Z, 28.58
2022-11-12T09:26:03.092Z, 28.55
2022-11-12T09:27:03.119Z, 28.51
2022-11-12T09:28:03.108Z, 28.51
2022-11-12T09:29:03.139Z, 28.52
2022-11-12T09:30:03.156Z, 28.49
2022-11-12T09:31:03.159Z, 28.51
2022-11-12T09:32:03.167Z, 28.43
2022-11-12T09:33:03.134Z, 28.48
2022-11-12T09:34:03.142Z, 28.40
2022-11-12T09:35:03.173Z, 28.41
2022-11-12T09:36:03.152Z, 28.40
2022-11-12T09:37:03.147Z, 28.37
2022-11-12T09:38:03.150Z, 28.32
2022-11-12T09:39:03.157Z, 28.36
2022-11-12T09:40:03.150Z, 28.37
2022-11-12T09:41:03.153Z, 28.31
2022-11-12T09:42:03.211Z, 28.28
2022-11-12T09:43:03.180Z, 28.25
2022-11-12T09:44:03.179Z, 28.28
2022-11-12T09:45:03.184Z, 28.25
2022-11-12T09:47:03.204Z, 28.18
2022-11-12T09:48:03.211Z, 28.15
2022-11-12T09:49:03.227Z, 28.17
2022-11-12T09:50:03.223Z, 28.15
2022-11-12T09:51:03.223Z, 28.13
2022-11-12T09:52:03.235Z, 28.17
2022-11-12T09:53:03.267Z, 28.15
2022-11-12T09:54:03.240Z, 28.13
2022-11-12T09:55:03.269Z, 28.07
2022-11-12T09:56:03.250Z, 28.10
2022-11-12T09:57:03.279Z, 28.13
2022-11-12T09:58:03.259Z, 28.13
2022-11-12T09:59:03.256Z, 28.07
2022-11-12T10:00:03.264Z, 28.02
2022-11-12T10:01:03.282Z, 28.03
2022-11-12T10:02:03.316Z, 27.98
2022-11-12T10:03:03.270Z, 27.99
2022-11-12T10:04:03.263Z, 28.00
2022-11-12T10:05:03.267Z, 27.97
2022-11-12T10:06:08.592Z, 27.97
2022-11-12T10:07:03.351Z, 27.98
2022-11-12T10:08:03.307Z, 27.95
2022-11-12T10:09:03.309Z, 27.93
2022-11-12T10:10:03.302Z, 27.98
2022-11-12T10:11:03.304Z, 27.90
2022-11-12T10:12:04.610Z, 27.91
2022-11-12T10:13:03.299Z, 27.91
2022-11-12T10:14:03.313Z, 27.93
2022-11-12T10:15:03.308Z, 27.86
2022-11-12T10:16:03.314Z, 27.87
2022-11-12T10:17:03.315Z, 27.87
2022-11-12T10:18:03.321Z, 27.86
2022-11-12T10:19:03.366Z, 27.91
2022-11-12T10:20:03.333Z, 27.87
2022-11-12T10:21:03.341Z, 27.80
2022-11-12T10:22:03.343Z, 27.88
2022-11-12T10:23:03.399Z, 27.83
2022-11-12T10:24:03.350Z, 27.83
2022-11-12T10:25:03.357Z, 27.80
2022-11-12T10:26:03.360Z, 27.83
2022-11-12T10:27:03.361Z, 27.82
2022-11-12T10:28:03.356Z, 27.77
2022-11-12T10:29:03.419Z, 27.75
2022-11-12T10:30:03.412Z, 27.74
2022-11-12T10:31:03.354Z, 27.72
2022-11-12T10:32:03.359Z, 27.72
2022-11-12T10:33:03.371Z, 27.70
2022-11-12T10:34:03.365Z, 27.72
2022-11-12T10:35:03.385Z, 27.72
2022-11-12T10:36:03.379Z, 27.73
2022-11-12T10:37:03.370Z, 27.72
2022-11-12T10:38:03.397Z, 27.74
2022-11-12T10:39:03.367Z, 27.64
2022-11-12T10:40:03.375Z, 27.67
2022-11-12T10:41:08.127Z, 27.67
2022-11-12T10:42:03.395Z, 27.69
2022-11-12T10:43:03.401Z, 27.70
2022-11-12T10:44:03.387Z, 27.67
2022-11-12T10:45:03.398Z, 27.63
2022-11-12T10:46:03.412Z, 27.66
2022-11-12T10:47:03.396Z, 27.68
2022-11-12T10:48:03.424Z, 27.63
2022-11-12T10:49:03.433Z, 27.60
2022-11-12T10:50:03.420Z, 27.53
2022-11-12T10:51:03.420Z, 27.56
2022-11-12T10:52:03.422Z, 27.52
2022-11-12T10:53:03.428Z, 27.53
2022-11-12T10:54:03.439Z, 27.55
2022-11-12T10:55:03.447Z, 27.55
2022-11-12T10:56:03.452Z, 27.55
2022-11-12T10:57:03.445Z, 27.53
2022-11-12T10:58:03.472Z, 27.52
2022-11-12T10:59:03.473Z, 27.53
2022-11-12T11:00:03.468Z, 27.52
2022-11-12T11:01:03.486Z, 27.47
2022-11-12T11:02:03.502Z, 27.48
2022-11-12T11:03:03.521Z, 27.51
2022-11-12T11:04:03.491Z, 27.49
2022-11-12T11:05:03.482Z, 27.42
2022-11-12T11:06:03.525Z, 27.43
2022-11-12T11:07:03.600Z, 27.45
2022-11-12T11:08:03.518Z, 27.49
2022-11-12T11:09:03.539Z, 27.46
2022-11-12T11:10:03.530Z, 27.46
2022-11-12T11:11:03.533Z, 27.46
2022-11-12T11:12:03.544Z, 27.48
2022-11-12T11:13:03.539Z, 27.43
2022-11-12T11:14:03.588Z, 27.43
2022-11-12T11:15:03.585Z, 27.43
2022-11-12T11:16:03.558Z, 27.42
2022-11-12T11:17:03.573Z, 27.39
2022-11-12T11:18:03.581Z, 27.39
2022-11-12T11:19:03.561Z, 27.40
2022-11-12T11:20:03.593Z, 27.42
2022-11-12T11:21:03.575Z, 27.37
2022-11-12T11:22:03.567Z, 27.42
2022-11-12T11:23:03.595Z, 27.40
2022-11-12T11:24:03.602Z, 27.40
2022-11-12T11:25:03.590Z, 27.36
2022-11-12T11:26:03.629Z, 27.35
2022-11-12T11:27:03.625Z, 27.45
2022-11-12T11:28:03.618Z, 27.41
2022-11-12T11:29:03.621Z, 27.38
2022-11-12T11:30:03.646Z, 27.36
2022-11-12T11:31:03.645Z, 27.36
2022-11-12T11:32:03.647Z, 27.35
2022-11-12T11:33:03.642Z, 27.31
2022-11-12T11:34:03.647Z, 27.37
2022-11-12T11:35:03.696Z, 27.32
2022-11-12T11:36:03.658Z, 27.25
2022-11-12T11:37:03.681Z, 27.27
2022-11-12T11:38:03.698Z, 27.33
2022-11-12T11:39:03.679Z, 27.29
2022-11-12T11:40:03.691Z, 27.26
2022-11-12T11:41:03.676Z, 27.28
2022-11-12T11:42:03.687Z, 27.29
2022-11-12T11:43:03.706Z, 27.24
2022-11-12T11:44:03.778Z, 27.24
2022-11-12T11:45:03.717Z, 27.29
2022-11-12T11:46:03.730Z, 27.32
2022-11-12T11:47:03.733Z, 27.41
2022-11-12T11:48:03.735Z, 27.40
2022-11-12T11:49:03.755Z, 27.40
2022-11-12T11:50:03.759Z, 27.42
2022-11-12T11:51:03.765Z, 27.41
2022-11-12T11:52:03.800Z, 27.42
2022-11-12T11:53:03.778Z, 27.40
2022-11-12T11:54:03.786Z, 27.42
2022-11-12T11:55:03.821Z, 27.40
2022-11-12T11:56:03.807Z, 27.44
2022-11-12T11:57:03.801Z, 27.41
2022-11-12T11:58:03.791Z, 27.48
2022-11-12T11:59:03.828Z, 27.49
2022-11-12T12:00:03.812Z, 27.50
2022-11-12T12:01:03.814Z, 27.45
2022-11-12T12:02:03.807Z, 27.50
2022-11-12T12:03:03.875Z, 27.43
2022-11-12T12:04:03.885Z, 27.40
2022-11-12T12:05:03.837Z, 27.43
2022-11-12T12:06:03.841Z, 27.45
2022-11-12T12:07:03.862Z, 27.46
2022-11-12T12:08:03.826Z, 27.41
2022-11-12T12:09:03.856Z, 27.45
2022-11-12T12:10:08.885Z, 27.46
2022-11-12T12:11:09.110Z, 27.49
2022-11-12T12:12:03.857Z, 27.42
2022-11-12T12:13:03.868Z, 27.46
2022-11-12T12:14:03.870Z, 27.45
2022-11-12T12:15:03.880Z, 27.46
2022-11-12T12:16:03.893Z, 27.44
2022-11-12T12:17:03.894Z, 27.46
2022-11-12T12:18:03.923Z, 27.38
2022-11-12T12:19:03.913Z, 27.42
2022-11-12T12:20:03.912Z, 27.44
2022-11-12T12:21:03.908Z, 27.41
2022-11-12T12:22:03.932Z, 27.42
2022-11-12T12:23:03.919Z, 27.44
2022-11-12T12:24:03.939Z, 27.42
2022-11-12T12:25:03.915Z, 27.45
2022-11-12T12:26:03.932Z, 27.38
2022-11-12T12:27:03.933Z, 27.38
2022-11-12T12:28:03.953Z, 27.42
2022-11-12T12:29:03.939Z, 27.38
2022-11-12T12:30:03.959Z, 27.42